Time;durP1;ratioP1;P1;durP2;ratioP2;P2;SDS_P1;SDS_P2;PMS_P1;PMS_P2;Temp;Humidity;BMP_temperature;BMP_pressure;BME280_temperature;BME280_humidity;BME280_pressure;Samples;Min_cycle;Max_cycle;Signal;HPM_P1;HPM_P2
2022/07/31 00:01:14;;;;;;;3.07;2.77;;;;;;;;;;5031081;28;20586;-51
2022/07/31 00:03:40;;;;;;;3.23;2.50;;;;;;;;;;5032265;28;20404;-51
2022/07/31 00:06:07;;;;;;;3.90;2.77;;;;;;;;;;5030317;28;20425;-52
2022/07/31 00:08:33;;;;;;;3.70;2.40;;;;;;;;;;5031788;28;20868;-52
2022/07/31 00:10:59;;;;;;;2.83;2.63;;;;;;;;;;5021232;28;20431;-53
2022/07/31 00:13:25;;;;;;;3.57;3.03;;;;;;;;;;5016311;28;20456;-53
2022/07/31 00:15:51;;;;;;;2.93;2.73;;;;;;;;;;5031747;28;20456;-53
2022/07/31 00:18:17;;;;;;;3.80;2.73;;;;;;;;;;5027639;28;20663;-51
2022/07/31 00:20:43;;;;;;;3.20;2.90;;;;;;;;;;5011345;28;20979;-51
2022/07/31 00:23:09;;;;;;;3.97;3.10;;;;;;;;;;5021813;28;20405;-52
2022/07/31 00:25:35;;;;;;;3.00;2.80;;;;;;;;;;5031839;28;20431;-52
2022/07/31 00:28:01;;;;;;;2.87;2.57;;;;;;;;;;5031780;28;20450;-52
2022/07/31 00:30:27;;;;;;;3.73;3.33;;;;;;;;;;5030996;28;21015;-52
2022/07/31 00:32:53;;;;;;;4.00;3.60;;;;;;;;;;5031841;28;20907;-52
2022/07/31 00:35:19;;;;;;;3.73;3.43;;;;;;;;;;5021962;28;20873;-53
2022/07/31 00:37:45;;;;;;;3.73;3.40;;;;;;;;;;5012150;28;20406;-52
2022/07/31 00:40:13;;;;;;;3.40;3.10;;;;;;;;;;5011243;28;20491;-51
2022/07/31 00:42:39;;;;;;;3.17;2.93;;;;;;;;;;5012177;28;20403;-52
2022/07/31 00:45:05;;;;;;;4.23;3.83;;;;;;;;;;5023785;28;20857;-52
2022/07/31 00:47:31;;;;;;;3.23;3.03;;;;;;;;;;5031406;28;20453;-52
2022/07/31 00:49:57;;;;;;;3.60;3.40;;;;;;;;;;5030485;28;20499;-52
2022/07/31 00:52:24;;;;;;;7.60;3.90;;;;;;;;;;5033797;28;20420;-52
2022/07/31 00:54:49;;;;;;;4.30;4.00;;;;;;;;;;5035189;28;20765;-53
2022/07/31 00:57:16;;;;;;;5.57;4.80;;;;;;;;;;5035258;28;20427;-51
2022/07/31 00:59:42;;;;;;;7.13;4.10;;;;;;;;;;5030238;28;20564;-54
2022/07/31 01:02:08;;;;;;;4.60;4.20;;;;;;;;;;5034042;28;20469;-53
2022/07/31 01:04:34;;;;;;;4.10;3.80;;;;;;;;;;5034675;28;20502;-53
2022/07/31 01:07:00;;;;;;;6.03;4.20;;;;;;;;;;5034331;28;20792;-52
2022/07/31 01:09:26;;;;;;;3.97;3.67;;;;;;;;;;5034767;28;20772;-52
2022/07/31 01:12:01;;;;;;;7.30;4.47;;;;;;;;;;5034330;28;20512;-52
2022/07/31 01:14:29;;;;;;;9.63;4.33;;;;;;;;;;5033872;28;20614;-52
2022/07/31 01:16:58;;;;;;;4.07;3.60;;;;;;;;;;5031488;28;20428;-53
2022/07/31 01:19:41;;;;;;;4.67;4.00;;;;;;;;;;5027163;28;20488;-53
2022/07/31 01:22:13;;;;;;;6.27;4.50;;;;;;;;;;5015070;28;20530;-52
2022/07/31 01:25:05;;;;;;;3.83;3.53;;;;;;;;;;5031833;28;20437;-52
2022/07/31 01:28:03;;;;;;;4.70;3.90;;;;;;;;;;5034097;28;20993;-51
2022/07/31 01:30:33;;;;;;;4.47;4.10;;;;;;;;;;5000856;28;20969;-51
2022/07/31 01:33:01;;;;;;;4.23;3.93;;;;;;;;;;5034993;28;20413;-52
2022/07/31 01:35:29;;;;;;;4.60;3.67;;;;;;;;;;5028681;28;20812;-52
2022/07/31 01:38:08;;;;;;;4.83;4.33;;;;;;;;;;5014813;28;20410;-52
2022/07/31 01:40:35;;;;;;;4.07;3.67;;;;;;;;;;5014127;28;20454;-53
2022/07/31 01:43:10;;;;;;;4.90;3.80;;;;;;;;;;5014839;28;20407;-52
2022/07/31 01:45:38;;;;;;;4.23;3.90;;;;;;;;;;5014896;28;20399;-52
2022/07/31 01:48:05;;;;;;;5.53;4.20;;;;;;;;;;5020132;28;20985;-52
2022/07/31 01:50:31;;;;;;;8.93;4.87;;;;;;;;;;5033157;28;20453;-52
2022/07/31 01:52:59;;;;;;;4.33;3.93;;;;;;;;;;5035180;28;20405;-52
2022/07/31 01:55:25;;;;;;;4.90;4.17;;;;;;;;;;5033963;28;20420;-52
2022/07/31 01:57:52;;;;;;;3.97;3.67;;;;;;;;;;5025991;28;20458;-52
2022/07/31 02:00:18;;;;;;;4.33;3.83;;;;;;;;;;5024431;28;20523;-51
2022/07/31 02:02:47;;;;;;;4.43;4.10;;;;;;;;;;5019046;28;20461;-51
2022/07/31 02:05:13;;;;;;;4.40;4.10;;;;;;;;;;5015770;28;20403;-52
2022/07/31 02:07:43;;;;;;;6.50;4.70;;;;;;;;;;5034164;28;20544;-53
2022/07/31 02:10:10;;;;;;;5.03;4.53;;;;;;;;;;5032939;28;20473;-52
2022/07/31 02:12:37;;;;;;;5.13;3.90;;;;;;;;;;5033580;28;20501;-52
2022/07/31 02:15:06;;;;;;;4.73;4.30;;;;;;;;;;5033698;28;20422;-51
2022/07/31 02:17:33;;;;;;;4.37;3.97;;;;;;;;;;5033726;28;20425;-52
2022/07/31 02:20:01;;;;;;;4.07;3.77;;;;;;;;;;5032900;28;20496;-51
2022/07/31 02:22:28;;;;;;;4.37;3.97;;;;;;;;;;5033433;28;20862;-51
2022/07/31 02:24:54;;;;;;;5.40;4.00;;;;;;;;;;5033419;28;20422;-52
2022/07/31 02:27:21;;;;;;;5.30;4.00;;;;;;;;;;5032878;28;20926;-52
2022/07/31 02:29:47;;;;;;;3.80;3.50;;;;;;;;;;5031894;28;20537;-52
2022/07/31 02:32:14;;;;;;;4.37;3.97;;;;;;;;;;5032925;28;20453;-53
2022/07/31 02:34:40;;;;;;;5.07;4.40;;;;;;;;;;5033353;28;20406;-51
2022/07/31 02:37:06;;;;;;;6.63;3.70;;;;;;;;;;5033309;28;20399;-51
2022/07/31 02:39:33;;;;;;;4.10;3.80;;;;;;;;;;5033162;28;21031;-51
2022/07/31 02:42:00;;;;;;;4.33;4.03;;;;;;;;;;5032909;28;20531;-51
2022/07/31 02:44:27;;;;;;;4.73;4.20;;;;;;;;;;5032639;28;20483;-51
2022/07/31 02:46:54;;;;;;;4.63;3.87;;;;;;;;;;5033215;28;20479;-52
2022/07/31 02:49:20;;;;;;;4.10;3.80;;;;;;;;;;5032982;28;20457;-51
2022/07/31 02:51:46;;;;;;;4.30;3.97;;;;;;;;;;5032386;28;20421;-52
2022/07/31 02:54:12;;;;;;;4.57;3.63;;;;;;;;;;5033152;28;20401;-51
2022/07/31 02:56:38;;;;;;;4.43;4.00;;;;;;;;;;5032993;28;20916;-52
2022/07/31 02:59:04;;;;;;;4.73;4.13;;;;;;;;;;5032111;28;20437;-51
2022/07/31 03:01:33;;;;;;;4.17;3.87;;;;;;;;;;5032201;28;20457;-51
2022/07/31 03:03:59;;;;;;;7.63;4.77;;;;;;;;;;5032884;28;20418;-51
2022/07/31 03:06:25;;;;;;;4.30;3.93;;;;;;;;;;5032711;28;20507;-52
2022/07/31 03:08:51;;;;;;;4.30;3.90;;;;;;;;;;5032764;28;20484;-51
2022/07/31 03:11:17;;;;;;;7.00;4.10;;;;;;;;;;5031924;28;20528;-52
2022/07/31 03:13:44;;;;;;;3.87;3.57;;;;;;;;;;5032941;28;20406;-52
2022/07/31 03:16:11;;;;;;;5.30;3.80;;;;;;;;;;5030305;28;20397;-51
2022/07/31 03:18:37;;;;;;;5.60;4.23;;;;;;;;;;5012948;28;20454;-53
2022/07/31 03:21:04;;;;;;;3.73;3.43;;;;;;;;;;5020923;28;20548;-51
2022/07/31 03:23:35;;;;;;;6.03;3.80;;;;;;;;;;5032821;28;20418;-52
2022/07/31 03:26:01;;;;;;;4.27;3.93;;;;;;;;;;5033038;28;20394;-52
2022/07/31 03:28:27;;;;;;;4.10;3.80;;;;;;;;;;5031915;28;20426;-51
2022/07/31 03:30:54;;;;;;;4.73;3.70;;;;;;;;;;5031201;28;20446;-51
2022/07/31 03:33:21;;;;;;;5.73;3.87;;;;;;;;;;5022910;28;20419;-52
2022/07/31 03:35:47;;;;;;;8.70;3.43;;;;;;;;;;5012804;28;20471;-51
2022/07/31 03:38:13;;;;;;;10.67;3.73;;;;;;;;;;5012777;28;20407;-52
2022/07/31 03:40:39;;;;;;;3.27;3.07;;;;;;;;;;5011836;28;20469;-52
2022/07/31 03:43:05;;;;;;;3.80;3.50;;;;;;;;;;5012553;28;20505;-52
2022/07/31 03:45:32;;;;;;;3.60;3.30;;;;;;;;;;5019318;28;20416;-52
2022/07/31 03:47:58;;;;;;;3.90;3.60;;;;;;;;;;5031838;28;20425;-52
2022/07/31 03:50:24;;;;;;;4.67;3.50;;;;;;;;;;5031013;28;20461;-51
2022/07/31 03:52:51;;;;;;;3.50;3.20;;;;;;;;;;5032028;28;20429;-51
2022/07/31 03:55:17;;;;;;;3.33;3.03;;;;;;;;;;5031670;28;20464;-52
2022/07/31 03:57:43;;;;;;;3.70;3.43;;;;;;;;;;5031154;28;20430;-52
2022/07/31 04:00:10;;;;;;;3.80;2.77;;;;;;;;;;5030120;28;20888;-52
2022/07/31 04:02:36;;;;;;;4.70;3.40;;;;;;;;;;5032154;28;20878;-51
2022/07/31 04:05:02;;;;;;;3.50;3.20;;;;;;;;;;5030679;28;20471;-52
2022/07/31 04:07:28;;;;;;;3.03;2.80;;;;;;;;;;5031016;28;20493;-51
2022/07/31 04:09:54;;;;;;;2.87;2.60;;;;;;;;;;5030924;28;20854;-53
2022/07/31 04:12:20;;;;;;;3.50;3.20;;;;;;;;;;5031734;28;20403;-51
2022/07/31 04:14:46;;;;;;;3.63;3.33;;;;;;;;;;5028230;28;20461;-52
2022/07/31 04:17:12;;;;;;;2.87;2.67;;;;;;;;;;5012108;28;20407;-51
2022/07/31 04:19:38;;;;;;;3.27;3.07;;;;;;;;;;5011812;28;20423;-52
2022/07/31 04:22:04;;;;;;;4.20;3.83;;;;;;;;;;5011209;28;20922;-52
2022/07/31 04:24:30;;;;;;;3.73;3.43;;;;;;;;;;5027704;28;20502;-52
2022/07/31 04:26:56;;;;;;;5.10;3.00;;;;;;;;;;5031623;28;20545;-51
2022/07/31 04:29:22;;;;;;;3.70;3.20;;;;;;;;;;5030495;28;20450;-52
2022/07/31 04:31:48;;;;;;;4.63;3.70;;;;;;;;;;5030081;28;20442;-52
2022/07/31 04:34:14;;;;;;;5.23;3.50;;;;;;;;;;5031553;28;20420;-51
2022/07/31 04:36:40;;;;;;;3.77;3.47;;;;;;;;;;5031703;28;20851;-51
2022/07/31 04:39:06;;;;;;;3.43;3.13;;;;;;;;;;5031426;28;20422;-53
2022/07/31 04:41:32;;;;;;;2.73;2.53;;;;;;;;;;5030955;28;20450;-52
2022/07/31 04:43:58;;;;;;;2.90;2.70;;;;;;;;;;5030966;28;20422;-52
2022/07/31 04:46:25;;;;;;;6.03;3.10;;;;;;;;;;5031469;28;20408;-52
2022/07/31 04:48:50;;;;;;;3.00;2.67;;;;;;;;;;5031251;28;20420;-51
2022/07/31 04:51:17;;;;;;;2.87;2.60;;;;;;;;;;5030679;28;20457;-52
2022/07/31 04:53:43;;;;;;;4.13;3.07;;;;;;;;;;5030895;28;20420;-53
2022/07/31 04:58:54;;;;;;;3.03;2.70;;;;;;;;;;5012934;28;20824;-52
2022/07/31 05:01:20;;;;;;;3.30;2.90;;;;;;;;;;5030964;28;20460;-52
2022/07/31 05:03:46;;;;;;;3.00;2.80;;;;;;;;;;5031420;28;20396;-53
2022/07/31 05:06:12;;;;;;;4.10;3.17;;;;;;;;;;5031606;28;20492;-53
2022/07/31 05:08:38;;;;;;;5.13;3.20;;;;;;;;;;5031887;28;20404;-52
2022/07/31 05:11:23;;;;;;;5.33;2.93;;;;;;;;;;5030710;28;20427;-53
2022/07/31 05:13:49;;;;;;;6.20;2.90;;;;;;;;;;5031709;28;20410;-51
2022/07/31 05:16:16;;;;;;;3.20;3.00;;;;;;;;;;5031530;28;20408;-51
2022/07/31 05:18:44;;;;;;;2.37;2.20;;;;;;;;;;5031325;28;20422;-52
2022/07/31 05:21:10;;;;;;;3.13;2.90;;;;;;;;;;5030821;28;20456;-52
2022/07/31 05:23:36;;;;;;;3.17;2.93;;;;;;;;;;5031255;28;20484;-53
2022/07/31 05:26:02;;;;;;;3.37;3.07;;;;;;;;;;5031401;28;20475;-52
2022/07/31 05:28:28;;;;;;;2.60;2.50;;;;;;;;;;5030537;28;20430;-52
2022/07/31 05:30:54;;;;;;;4.77;2.67;;;;;;;;;;5030668;28;20429;-51
2022/07/31 05:33:19;;;;;;;2.47;2.37;;;;;;;;;;5031205;28;20492;-51
2022/07/31 05:35:45;;;;;;;3.20;3.00;;;;;;;;;;5031213;28;20411;-51
2022/07/31 05:38:11;;;;;;;2.97;2.67;;;;;;;;;;5031642;28;20405;-52
2022/07/31 05:40:37;;;;;;;5.90;3.00;;;;;;;;;;5034048;28;20812;-51
2022/07/31 05:43:03;;;;;;;3.00;2.80;;;;;;;;;;5034951;28;20401;-51
2022/07/31 05:45:29;;;;;;;3.47;3.17;;;;;;;;;;5034594;28;20547;-51
2022/07/31 05:47:55;;;;;;;4.17;2.67;;;;;;;;;;5034624;28;20405;-52
2022/07/31 05:50:22;;;;;;;4.97;2.60;;;;;;;;;;5033724;28;20821;-53
2022/07/31 05:52:50;;;;;;;5.57;2.60;;;;;;;;;;5034556;28;20917;-51
2022/07/31 05:55:16;;;;;;;2.90;2.50;;;;;;;;;;5034549;28;20492;-51
2022/07/31 05:57:42;;;;;;;3.40;3.10;;;;;;;;;;5034649;28;20406;-52
2022/07/31 06:00:09;;;;;;;3.97;2.60;;;;;;;;;;5032893;28;21022;-51
2022/07/31 06:02:35;;;;;;;2.70;2.50;;;;;;;;;;5034256;28;20401;-51
2022/07/31 06:05:01;;;;;;;3.33;2.60;;;;;;;;;;5034447;28;20409;-53
2022/07/31 06:07:27;;;;;;;3.30;2.77;;;;;;;;;;5034222;28;20460;-52
2022/07/31 06:09:53;;;;;;;3.60;2.80;;;;;;;;;;5033394;28;20428;-52
2022/07/31 06:12:19;;;;;;;3.50;3.17;;;;;;;;;;5034119;28;21048;-52
2022/07/31 06:14:45;;;;;;;4.73;2.70;;;;;;;;;;5034120;28;20909;-52
2022/07/31 06:17:11;;;;;;;2.80;2.60;;;;;;;;;;5034064;28;20466;-52
2022/07/31 06:19:38;;;;;;;3.57;3.30;;;;;;;;;;5033706;28;20515;-52
2022/07/31 06:22:04;;;;;;;3.40;3.10;;;;;;;;;;5033623;28;20885;-52
2022/07/31 06:24:31;;;;;;;5.07;3.43;;;;;;;;;;5033905;28;20820;-53
2022/07/31 06:27:01;;;;;;;9.67;3.67;;;;;;;;;;5033890;28;20404;-51
2022/07/31 06:29:27;;;;;;;5.10;3.10;;;;;;;;;;5032772;28;20917;-52
2022/07/31 06:31:53;;;;;;;3.93;3.63;;;;;;;;;;5032409;28;20434;-51
2022/07/31 06:34:19;;;;;;;3.27;2.97;;;;;;;;;;5033775;28;20407;-53
2022/07/31 06:36:45;;;;;;;6.90;3.33;;;;;;;;;;5033662;28;20420;-52
2022/07/31 06:39:11;;;;;;;7.17;3.27;;;;;;;;;;5033740;28;20414;-52
2022/07/31 06:41:43;;;;;;;4.77;4.30;;;;;;;;;;5032860;28;20460;-52
2022/07/31 06:44:13;;;;;;;4.50;3.30;;;;;;;;;;5032346;28;20422;-51
2022/07/31 06:46:39;;;;;;;5.60;3.73;;;;;;;;;;5033395;28;20409;-53
2022/07/31 06:49:05;;;;;;;5.80;3.63;;;;;;;;;;5032637;28;20402;-51
2022/07/31 06:51:31;;;;;;;3.57;3.27;;;;;;;;;;5032819;28;20413;-51
2022/07/31 06:53:58;;;;;;;3.97;3.67;;;;;;;;;;5033458;28;20406;-52
2022/07/31 06:56:24;;;;;;;4.20;3.90;;;;;;;;;;5033325;28;20421;-53
2022/07/31 06:58:50;;;;;;;5.03;4.10;;;;;;;;;;5032324;28;20918;-53
2022/07/31 07:01:16;;;;;;;4.67;4.27;;;;;;;;;;5032405;28;20863;-52
2022/07/31 07:03:42;;;;;;;5.40;2.67;;;;;;;;;;5033086;28;20407;-52
2022/07/31 07:06:08;;;;;;;4.63;3.90;;;;;;;;;;5033207;28;20398;-52
2022/07/31 07:08:34;;;;;;;6.27;3.90;;;;;;;;;;5032981;28;20421;-52
2022/07/31 07:11:00;;;;;;;4.50;4.10;;;;;;;;;;5032702;28;20894;-51
2022/07/31 07:13:26;;;;;;;4.43;3.40;;;;;;;;;;5033073;28;20442;-52
2022/07/31 07:15:52;;;;;;;6.83;4.67;;;;;;;;;;5033027;28;20406;-52
2022/07/31 07:18:20;;;;;;;4.63;3.33;;;;;;;;;;5032832;28;20913;-53
2022/07/31 07:20:46;;;;;;;7.50;4.20;;;;;;;;;;5032002;28;20462;-53
2022/07/31 07:23:12;;;;;;;5.77;3.90;;;;;;;;;;5032977;28;20457;-53
2022/07/31 07:25:39;;;;;;;3.90;3.53;;;;;;;;;;5032764;28;20399;-53
2022/07/31 07:28:05;;;;;;;3.40;3.10;;;;;;;;;;5039649;28;20429;-51
2022/07/31 07:30:31;;;;;;;5.20;4.10;;;;;;;;;;5031762;28;20429;-52
2022/07/31 07:32:58;;;;;;;4.97;3.63;;;;;;;;;;5032951;28;20414;-52
2022/07/31 07:35:24;;;;;;;5.07;4.00;;;;;;;;;;5032571;28;20406;-51
2022/07/31 07:37:50;;;;;;;4.17;3.87;;;;;;;;;;5032590;28;20749;-52
2022/07/31 07:40:16;;;;;;;4.30;4.00;;;;;;;;;;5031640;28;20803;-52
2022/07/31 07:42:42;;;;;;;3.17;2.90;;;;;;;;;;5032560;28;20901;-52
2022/07/31 07:45:09;;;;;;;6.07;4.13;;;;;;;;;;5032285;28;20470;-52
2022/07/31 07:47:35;;;;;;;4.00;3.53;;;;;;;;;;5031504;28;20413;-52
2022/07/31 07:50:01;;;;;;;3.30;3.10;;;;;;;;;;5030845;28;20470;-52
2022/07/31 07:52:27;;;;;;;4.43;3.40;;;;;;;;;;5031848;28;20441;-50
2022/07/31 07:54:53;;;;;;;3.90;3.60;;;;;;;;;;5032670;28;20407;-52
2022/07/31 07:57:19;;;;;;;5.17;3.20;;;;;;;;;;5032820;28;20877;-51
2022/07/31 07:59:47;;;;;;;3.20;3.00;;;;;;;;;;5030761;28;20438;-51
2022/07/31 08:02:13;;;;;;;5.83;3.40;;;;;;;;;;5032212;28;20463;-51
2022/07/31 08:04:39;;;;;;;5.30;3.27;;;;;;;;;;5033098;28;20402;-49
2022/07/31 08:07:05;;;;;;;3.67;3.40;;;;;;;;;;5032695;28;20951;-50
2022/07/31 08:09:32;;;;;;;3.80;2.63;;;;;;;;;;5032363;28;20494;-49
2022/07/31 08:11:58;;;;;;;3.00;2.80;;;;;;;;;;5031973;28;20496;-50
2022/07/31 08:14:24;;;;;;;3.10;2.50;;;;;;;;;;5032365;28;20399;-51
2022/07/31 08:16:50;;;;;;;4.80;2.93;;;;;;;;;;5032153;28;20406;-50
2022/07/31 08:19:16;;;;;;;2.83;2.37;;;;;;;;;;5032213;28;20933;-51
2022/07/31 08:21:42;;;;;;;2.70;2.50;;;;;;;;;;5031657;28;20455;-50
2022/07/31 08:24:10;;;;;;;2.60;2.40;;;;;;;;;;5032262;28;20944;-51
2022/07/31 08:29:20;;;;;;;3.60;3.07;;;;;;;;;;5031276;28;20455;-50
2022/07/31 08:31:46;;;;;;;2.47;2.27;;;;;;;;;;5031678;28;20394;-51
2022/07/31 08:34:12;;;;;;;2.33;2.13;;;;;;;;;;5032225;28;20412;-50
2022/07/31 08:36:38;;;;;;;2.97;2.77;;;;;;;;;;5032063;28;20879;-50
2022/07/31 08:39:05;;;;;;;3.10;2.83;;;;;;;;;;5031764;28;20891;-49
2022/07/31 08:41:37;;;;;;;3.50;2.20;;;;;;;;;;5031095;28;20541;-49
2022/07/31 08:44:03;;;;;;;2.40;2.10;;;;;;;;;;5031762;28;20391;-49
2022/07/31 08:46:30;;;;;;;2.67;2.47;;;;;;;;;;5031692;28;20412;-50
2022/07/31 08:48:56;;;;;;;2.70;2.50;;;;;;;;;;5031594;28;20836;-53
2022/07/31 08:51:23;;;;;;;14.00;2.60;;;;;;;;;;5030900;28;20418;-50
2022/07/31 08:53:50;;;;;;;6.83;3.43;;;;;;;;;;5031700;28;20483;-49
2022/07/31 08:56:17;;;;;;;7.07;3.20;;;;;;;;;;5031592;28;20411;-50
2022/07/31 08:58:43;;;;;;;5.23;2.97;;;;;;;;;;5030841;28;20429;-50
2022/07/31 09:01:12;;;;;;;4.33;3.07;;;;;;;;;;5030049;28;20663;-51
2022/07/31 09:03:38;;;;;;;3.60;3.33;;;;;;;;;;5028931;28;20421;-49
2022/07/31 09:06:05;;;;;;;5.03;2.63;;;;;;;;;;5031450;28;20962;-50
2022/07/31 09:08:35;;;;;;;2.80;2.60;;;;;;;;;;5031478;28;20412;-51
2022/07/31 09:11:11;;;;;;;3.40;2.60;;;;;;;;;;5030748;28;20464;-49
2022/07/31 09:13:37;;;;;;;3.20;2.90;;;;;;;;;;5034168;28;20416;-49
2022/07/31 09:16:03;;;;;;;6.13;2.87;;;;;;;;;;5035134;28;20425;-50
2022/07/31 09:18:30;;;;;;;2.63;2.43;;;;;;;;;;5035221;28;20434;-50
2022/07/31 09:20:57;;;;;;;2.90;2.37;;;;;;;;;;5034575;28;20449;-49
2022/07/31 09:23:23;;;;;;;3.03;2.83;;;;;;;;;;5035082;28;20409;-51
2022/07/31 09:25:56;;;;;;;2.57;2.20;;;;;;;;;;5035906;28;20416;-50
2022/07/31 09:28:31;;;;;;;2.90;2.60;;;;;;;;;;5034374;28;20452;-49
2022/07/31 09:30:57;;;;;;;4.10;3.60;;;;;;;;;;5034954;28;20432;-50
2022/07/31 09:33:23;;;;;;;3.47;3.17;;;;;;;;;;5035469;28;20803;-51
2022/07/31 09:35:50;;;;;;;3.63;2.80;;;;;;;;;;5035163;28;20409;-50
2022/07/31 09:38:17;;;;;;;3.90;2.90;;;;;;;;;;5035338;28;20400;-53
2022/07/31 09:40:43;;;;;;;2.40;2.13;;;;;;;;;;5034550;28;20457;-51
2022/07/31 09:43:16;;;;;;;2.70;2.10;;;;;;;;;;5035368;28;20398;-51
2022/07/31 09:45:45;;;;;;;2.93;2.63;;;;;;;;;;5034970;28;20448;-50
2022/07/31 09:48:11;;;;;;;5.00;2.60;;;;;;;;;;5035028;28;20399;-52
2022/07/31 09:50:38;;;;;;;3.10;2.67;;;;;;;;;;5034044;28;20517;-51
2022/07/31 09:53:05;;;;;;;2.80;2.50;;;;;;;;;;5035232;28;20469;-50
2022/07/31 09:55:31;;;;;;;3.90;3.20;;;;;;;;;;5033738;28;20838;-49
2022/07/31 09:57:58;;;;;;;3.13;2.70;;;;;;;;;;5034467;28;20440;-50
2022/07/31 10:00:25;;;;;;;2.37;2.17;;;;;;;;;;5033390;28;20932;-50
2022/07/31 10:02:55;;;;;;;1.73;1.63;;;;;;;;;;5034175;28;20503;-49
2022/07/31 10:05:25;;;;;;;2.80;2.20;;;;;;;;;;5034336;28;20404;-51
2022/07/31 10:07:51;;;;;;;2.20;1.83;;;;;;;;;;5034280;28;20869;-51
2022/07/31 10:10:17;;;;;;;1.63;1.53;;;;;;;;;;5033544;28;20926;-52
2022/07/31 10:12:46;;;;;;;2.80;2.13;;;;;;;;;;5034365;28;20409;-51
2022/07/31 10:15:13;;;;;;;6.70;3.87;;;;;;;;;;5034385;28;20409;-50
2022/07/31 10:17:41;;;;;;;3.00;2.70;;;;;;;;;;5034467;28;20410;-50
2022/07/31 10:20:08;;;;;;;5.47;2.10;;;;;;;;;;5032511;28;20530;-50
2022/07/31 10:22:35;;;;;;;4.67;2.77;;;;;;;;;;5034348;28;20440;-51
2022/07/31 10:25:02;;;;;;;2.50;2.30;;;;;;;;;;5033250;28;20407;-51
2022/07/31 10:27:29;;;;;;;2.43;2.00;;;;;;;;;;5034237;28;20405;-51
2022/07/31 10:29:56;;;;;;;2.27;2.10;;;;;;;;;;5033282;28;20460;-50
2022/07/31 10:32:22;;;;;;;2.63;2.40;;;;;;;;;;5034050;28;20445;-50
2022/07/31 10:34:48;;;;;;;2.10;1.90;;;;;;;;;;5034223;28;20410;-51
2022/07/31 10:37:30;;;;;;;2.30;2.10;;;;;;;;;;5033973;28;20405;-50
2022/07/31 10:40:03;;;;;;;2.23;2.03;;;;;;;;;;5033026;28;20509;-50
2022/07/31 10:42:31;;;;;;;1.83;1.73;;;;;;;;;;5033452;28;20454;-50
2022/07/31 10:45:08;;;;;;;1.93;1.83;;;;;;;;;;5033736;28;20402;-49
2022/07/31 10:47:34;;;;;;;2.17;1.80;;;;;;;;;;5032400;28;20782;-49
2022/07/31 10:50:00;;;;;;;2.80;1.80;;;;;;;;;;5032546;28;20646;-51
2022/07/31 10:52:33;;;;;;;3.30;1.80;;;;;;;;;;5033411;28;20406;-50
2022/07/31 10:55:02;;;;;;;2.43;2.23;;;;;;;;;;5033384;28;20401;-51
2022/07/31 10:57:30;;;;;;;2.60;2.10;;;;;;;;;;5033297;28;20402;-50
2022/07/31 11:00:07;;;;;;;1.80;1.70;;;;;;;;;;5032400;28;20418;-51
2022/07/31 11:02:36;;;;;;;2.93;1.73;;;;;;;;;;5033367;28;20421;-52
2022/07/31 11:05:12;;;;;;;8.17;2.03;;;;;;;;;;5033683;28;20402;-50
2022/07/31 11:07:38;;;;;;;2.90;1.90;;;;;;;;;;5033599;28;20834;-52
2022/07/31 11:10:13;;;;;;;2.30;2.10;;;;;;;;;;5033065;28;20414;-51
2022/07/31 11:12:39;;;;;;;2.03;1.93;;;;;;;;;;5033030;28;20428;-51
2022/07/31 11:15:16;;;;;;;2.13;1.93;;;;;;;;;;5033007;28;20433;-50
2022/07/31 11:17:42;;;;;;;2.17;1.80;;;;;;;;;;5033653;28;20433;-51
2022/07/31 11:20:18;;;;;;;2.43;2.20;;;;;;;;;;5032212;28;20422;-50
2022/07/31 11:22:52;;;;;;;2.13;1.87;;;;;;;;;;5033185;28;20905;-50
2022/07/31 11:25:18;;;;;;;2.83;1.63;;;;;;;;;;5033107;28;20485;-50
2022/07/31 11:27:44;;;;;;;1.93;1.83;;;;;;;;;;5032823;28;20828;-50
2022/07/31 11:30:10;;;;;;;2.70;1.73;;;;;;;;;;5032009;28;20949;-50
2022/07/31 11:32:36;;;;;;;2.20;2.10;;;;;;;;;;5033363;28;20417;-50
2022/07/31 11:35:03;;;;;;;2.40;2.20;;;;;;;;;;5032866;28;20485;-50
2022/07/31 11:37:30;;;;;;;2.67;2.47;;;;;;;;;;5031305;28;20430;-50
2022/07/31 11:39:57;;;;;;;2.53;1.77;;;;;;;;;;5032048;28;20429;-53
2022/07/31 11:42:23;;;;;;;1.90;1.70;;;;;;;;;;5032818;28;20454;-50
2022/07/31 11:44:50;;;;;;;3.60;2.00;;;;;;;;;;5032819;28;20403;-50
2022/07/31 11:47:16;;;;;;;2.23;2.03;;;;;;;;;;5032676;28;20478;-50
2022/07/31 11:49:42;;;;;;;4.03;2.30;;;;;;;;;;5031798;28;20930;-55
2022/07/31 11:52:11;;;;;;;2.80;2.30;;;;;;;;;;5033098;28;20402;-51
2022/07/31 11:54:37;;;;;;;3.10;2.43;;;;;;;;;;5033442;28;20402;-50
2022/07/31 11:57:04;;;;;;;2.90;2.70;;;;;;;;;;5032946;28;20446;-51
2022/07/31 11:59:30;;;;;;;2.67;2.47;;;;;;;;;;5032326;28;20426;-51
2022/07/31 12:02:03;;;;;;;4.70;2.40;;;;;;;;;;5030984;28;20472;-51
2022/07/31 12:04:30;;;;;;;5.30;2.20;;;;;;;;;;5032633;28;20402;-50
2022/07/31 12:06:57;;;;;;;3.07;2.20;;;;;;;;;;5030053;28;20509;-51
2022/07/31 12:09:23;;;;;;;3.97;2.23;;;;;;;;;;5032130;28;20479;-50
2022/07/31 12:11:50;;;;;;;5.07;2.17;;;;;;;;;;5031501;28;20402;-50
2022/07/31 12:14:26;;;;;;;2.90;2.27;;;;;;;;;;5032020;28;20407;-50
2022/07/31 12:16:52;;;;;;;4.77;2.17;;;;;;;;;;5032056;28;20819;-50
2022/07/31 12:19:24;;;;;;;8.13;2.23;;;;;;;;;;5031991;28;20448;-50
2022/07/31 12:21:50;;;;;;;4.00;2.70;;;;;;;;;;5031441;28;20549;-50
2022/07/31 12:24:18;;;;;;;2.10;2.00;;;;;;;;;;5032081;28;20434;-50
2022/07/31 12:26:54;;;;;;;2.30;2.20;;;;;;;;;;5031998;28;20447;-51
2022/07/31 12:29:29;;;;;;;3.20;2.53;;;;;;;;;;5030839;28;21005;-50
2022/07/31 12:31:57;;;;;;;3.03;2.73;;;;;;;;;;5030992;28;20397;-52
2022/07/31 12:34:33;;;;;;;5.43;2.60;;;;;;;;;;5031651;28;20839;-51
2022/07/31 12:37:03;;;;;;;2.40;2.23;;;;;;;;;;5031558;28;20405;-50
2022/07/31 12:39:30;;;;;;;2.70;2.50;;;;;;;;;;5031511;28;20433;-49
2022/07/31 12:41:56;;;;;;;2.33;2.13;;;;;;;;;;5030866;28;20487;-51
2022/07/31 12:44:22;;;;;;;5.53;2.27;;;;;;;;;;5031720;28;20493;-52
2022/07/31 12:46:48;;;;;;;6.33;2.40;;;;;;;;;;5031784;28;20447;-50
2022/07/31 12:49:15;;;;;;;4.30;2.70;;;;;;;;;;5035382;28;20505;-50
2022/07/31 12:51:41;;;;;;;2.60;2.40;;;;;;;;;;5034882;28;20398;-50
2022/07/31 12:54:08;;;;;;;2.00;1.90;;;;;;;;;;5034122;28;20438;-50
2022/07/31 12:56:41;;;;;;;1.70;1.60;;;;;;;;;;5034833;28;20436;-52
2022/07/31 12:59:07;;;;;;;4.37;2.30;;;;;;;;;;5035548;28;20774;-51
2022/07/31 13:01:33;;;;;;;3.20;2.90;;;;;;;;;;5035310;28;20531;-51
2022/07/31 13:04:00;;;;;;;2.00;1.90;;;;;;;;;;5035410;28;20489;-51
2022/07/31 13:06:27;;;;;;;3.63;3.33;;;;;;;;;;5035515;28;20416;-50
2022/07/31 13:08:53;;;;;;;2.53;2.33;;;;;;;;;;5035570;28;20909;-52
2022/07/31 13:11:19;;;;;;;2.63;2.40;;;;;;;;;;5034935;28;20410;-52
2022/07/31 13:13:45;;;;;;;5.37;2.20;;;;;;;;;;5035502;28;20410;-50
2022/07/31 13:16:11;;;;;;;2.53;2.33;;;;;;;;;;5035481;28;20826;-51
2022/07/31 13:18:37;;;;;;;2.10;2.00;;;;;;;;;;5034358;28;20465;-50
2022/07/31 13:21:03;;;;;;;3.00;2.10;;;;;;;;;;5034515;28;20551;-52
2022/07/31 13:23:30;;;;;;;3.20;2.43;;;;;;;;;;5035514;28;20398;-51
2022/07/31 13:25:57;;;;;;;2.40;2.20;;;;;;;;;;5035270;28;20404;-51
2022/07/31 13:28:23;;;;;;;4.23;2.17;;;;;;;;;;5035278;28;20438;-51
2022/07/31 13:30:49;;;;;;;2.20;2.10;;;;;;;;;;5033412;28;20465;-51
2022/07/31 13:33:15;;;;;;;2.70;2.10;;;;;;;;;;5034999;28;20410;-50
2022/07/31 13:35:41;;;;;;;3.43;2.33;;;;;;;;;;5033766;28;20902;-53
2022/07/31 13:38:07;;;;;;;2.57;2.37;;;;;;;;;;5034879;28;20418;-52
2022/07/31 13:43:22;;;;;;;6.63;3.10;;;;;;;;;;5014540;28;20418;-50
2022/07/31 13:45:50;;;;;;;2.43;2.23;;;;;;;;;;5034534;28;20898;-52
2022/07/31 13:48:16;;;;;;;2.43;2.20;;;;;;;;;;5034656;28;20402;-50
2022/07/31 13:50:42;;;;;;;1.87;1.77;;;;;;;;;;5033760;28;20822;-50
2022/07/31 13:53:08;;;;;;;2.50;2.40;;;;;;;;;;5033142;28;20407;-51
2022/07/31 13:55:34;;;;;;;2.87;2.43;;;;;;;;;;5034367;28;20430;-50
2022/07/31 13:58:00;;;;;;;2.40;2.23;;;;;;;;;;5034301;28;20426;-51
2022/07/31 14:00:26;;;;;;;2.07;1.97;;;;;;;;;;5032249;28;20930;-51
2022/07/31 14:02:52;;;;;;;2.33;2.23;;;;;;;;;;5034460;28;20406;-51
2022/07/31 14:05:18;;;;;;;3.37;2.53;;;;;;;;;;5034283;28;20422;-52
2022/07/31 14:07:44;;;;;;;2.10;2.00;;;;;;;;;;5033192;28;20743;-51
2022/07/31 14:10:10;;;;;;;4.37;2.10;;;;;;;;;;5032453;28;20453;-50
2022/07/31 14:12:38;;;;;;;3.00;2.37;;;;;;;;;;5034261;28;20969;-50
2022/07/31 14:15:04;;;;;;;2.20;2.10;;;;;;;;;;5034179;28;20448;-52
2022/07/31 14:17:30;;;;;;;4.17;2.50;;;;;;;;;;5033656;28;20403;-52
2022/07/31 14:19:56;;;;;;;4.10;2.33;;;;;;;;;;5033365;28;20652;-50
2022/07/31 14:22:22;;;;;;;4.00;2.83;;;;;;;;;;5033708;28;20462;-50
2022/07/31 14:24:49;;;;;;;2.43;2.23;;;;;;;;;;5034119;28;20399;-50
2022/07/31 14:27:15;;;;;;;2.60;2.40;;;;;;;;;;5033899;28;20493;-51
2022/07/31 14:29:41;;;;;;;3.77;2.03;;;;;;;;;;5033517;28;20449;-51
2022/07/31 14:32:07;;;;;;;2.87;2.53;;;;;;;;;;5034073;28;20430;-52
2022/07/31 14:34:33;;;;;;;2.70;2.50;;;;;;;;;;5032973;28;20899;-51
2022/07/31 14:36:59;;;;;;;3.00;2.70;;;;;;;;;;5034068;28;20460;-50
2022/07/31 14:39:25;;;;;;;2.77;2.57;;;;;;;;;;5033662;28;20438;-50
2022/07/31 14:41:51;;;;;;;2.70;2.50;;;;;;;;;;5033007;28;20953;-50
2022/07/31 14:44:18;;;;;;;2.67;2.47;;;;;;;;;;5034071;28;20394;-50
2022/07/31 14:46:44;;;;;;;3.33;3.03;;;;;;;;;;5033284;28;20402;-50
2022/07/31 14:49:11;;;;;;;4.47;2.67;;;;;;;;;;5031552;28;20405;-52
2022/07/31 14:51:37;;;;;;;2.67;2.50;;;;;;;;;;5031914;28;20406;-50